sensor_id;sensor_type;location;lat;lon;timestamp;P1;durP1;ratioP1;P2;durP2;ratioP2
22166;SDS011;11249;52.468;13.776;2023-06-01T00:00:56;6.18;;;3.72;;
22166;SDS011;11249;52.468;13.776;2023-06-01T00:03:22;6.93;;;3.53;;
22166;SDS011;11249;52.468;13.776;2023-06-01T00:05:50;6.15;;;3.55;;
22166;SDS011;11249;52.468;13.776;2023-06-01T00:08:17;6.78;;;3.70;;
22166;SDS011;11249;52.468;13.776;2023-06-01T00:10:44;6.10;;;3.47;;
22166;SDS011;11249;52.468;13.776;2023-06-01T00:13:11;6.15;;;3.55;;
22166;SDS011;11249;52.468;13.776;2023-06-01T00:15:37;4.88;;;3.40;;
22166;SDS011;11249;52.468;13.776;2023-06-01T00:18:04;10.23;;;3.58;;
22166;SDS011;11249;52.468;13.776;2023-06-01T00:20:32;5.75;;;3.33;;
22166;SDS011;11249;52.468;13.776;2023-06-01T00:22:59;7.40;;;3.65;;
22166;SDS011;11249;52.468;13.776;2023-06-01T00:25:25;7.13;;;3.83;;
22166;SDS011;11249;52.468;13.776;2023-06-01T00:27:53;5.65;;;3.47;;
22166;SDS011;11249;52.468;13.776;2023-06-01T00:30:19;6.43;;;3.65;;
22166;SDS011;11249;52.468;13.776;2023-06-01T00:32:46;6.88;;;3.53;;
22166;SDS011;11249;52.468;13.776;2023-06-01T00:35:13;4.70;;;3.50;;
22166;SDS011;11249;52.468;13.776;2023-06-01T00:37:40;5.57;;;3.58;;
22166;SDS011;11249;52.468;13.776;2023-06-01T00:40:06;5.30;;;3.83;;
22166;SDS011;11249;52.468;13.776;2023-06-01T00:42:34;4.43;;;3.25;;
22166;SDS011;11249;52.468;13.776;2023-06-01T00:45:01;6.38;;;4.13;;
22166;SDS011;11249;52.468;13.776;2023-06-01T00:47:27;6.28;;;3.88;;
22166;SDS011;11249;52.468;13.776;2023-06-01T00:49:54;9.70;;;4.10;;
22166;SDS011;11249;52.468;13.776;2023-06-01T00:52:21;7.00;;;3.75;;
22166;SDS011;11249;52.468;13.776;2023-06-01T00:54:49;4.97;;;3.80;;
22166;SDS011;11249;52.468;13.776;2023-06-01T00:57:16;8.77;;;4.32;;
22166;SDS011;11249;52.468;13.776;2023-06-01T00:59:43;7.78;;;4.32;;
22166;SDS011;11249;52.468;13.776;2023-06-01T01:02:10;7.25;;;3.60;;
22166;SDS011;11249;52.468;13.776;2023-06-01T01:04:39;5.72;;;3.55;;
22166;SDS011;11249;52.468;13.776;2023-06-01T01:07:19;7.60;;;3.75;;
22166;SDS011;11249;52.468;13.776;2023-06-01T01:09:59;7.55;;;3.92;;
22166;SDS011;11249;52.468;13.776;2023-06-01T01:12:53;11.43;;;4.55;;
22166;SDS011;11249;52.468;13.776;2023-06-01T01:15:32;7.80;;;3.47;;
22166;SDS011;11249;52.468;13.776;2023-06-01T01:18:16;6.10;;;3.47;;
22166;SDS011;11249;52.468;13.776;2023-06-01T01:20:55;8.25;;;4.10;;
22166;SDS011;11249;52.468;13.776;2023-06-01T01:23:38;6.45;;;4.00;;
22166;SDS011;11249;52.468;13.776;2023-06-01T01:26:14;5.95;;;3.38;;
22166;SDS011;11249;52.468;13.776;2023-06-01T01:29:06;2.95;;;2.63;;
22166;SDS011;11249;52.468;13.776;2023-06-01T01:31:38;6.72;;;4.22;;
22166;SDS011;11249;52.468;13.776;2023-06-01T01:34:05;4.97;;;3.30;;
22166;SDS011;11249;52.468;13.776;2023-06-01T01:36:34;8.27;;;4.10;;
22166;SDS011;11249;52.468;13.776;2023-06-01T01:39:02;4.30;;;3.38;;
22166;SDS011;11249;52.468;13.776;2023-06-01T01:41:29;6.95;;;3.72;;
22166;SDS011;11249;52.468;13.776;2023-06-01T01:43:56;8.07;;;3.72;;
22166;SDS011;11249;52.468;13.776;2023-06-01T01:46:26;6.95;;;4.30;;
22166;SDS011;11249;52.468;13.776;2023-06-01T01:51:35;7.68;;;3.13;;
22166;SDS011;11249;52.468;13.776;2023-06-01T01:54:04;7.50;;;3.33;;
22166;SDS011;11249;52.468;13.776;2023-06-01T01:56:34;4.82;;;3.10;;
22166;SDS011;11249;52.468;13.776;2023-06-01T01:59:02;6.27;;;3.43;;
22166;SDS011;11249;52.468;13.776;2023-06-01T02:01:30;7.07;;;3.20;;
22166;SDS011;11249;52.468;13.776;2023-06-01T02:04:01;4.65;;;3.10;;
22166;SDS011;11249;52.468;13.776;2023-06-01T02:06:29;6.20;;;3.15;;
22166;SDS011;11249;52.468;13.776;2023-06-01T02:08:56;4.47;;;3.10;;
22166;SDS011;11249;52.468;13.776;2023-06-01T02:11:23;7.38;;;3.42;;
22166;SDS011;11249;52.468;13.776;2023-06-01T02:13:51;5.38;;;3.38;;
22166;SDS011;11249;52.468;13.776;2023-06-01T02:16:17;3.47;;;2.65;;
22166;SDS011;11249;52.468;13.776;2023-06-01T02:18:44;4.88;;;3.15;;
22166;SDS011;11249;52.468;13.776;2023-06-01T02:21:13;6.20;;;2.88;;
22166;SDS011;11249;52.468;13.776;2023-06-01T02:23:40;6.03;;;3.20;;
22166;SDS011;11249;52.468;13.776;2023-06-01T02:26:08;7.72;;;3.58;;
22166;SDS011;11249;52.468;13.776;2023-06-01T02:28:36;5.60;;;3.00;;
22166;SDS011;11249;52.468;13.776;2023-06-01T02:31:04;5.82;;;3.25;;
22166;SDS011;11249;52.468;13.776;2023-06-01T02:33:32;6.45;;;3.30;;
22166;SDS011;11249;52.468;13.776;2023-06-01T02:35:59;7.78;;;2.97;;
22166;SDS011;11249;52.468;13.776;2023-06-01T02:38:26;4.10;;;2.97;;
22166;SDS011;11249;52.468;13.776;2023-06-01T02:40:53;5.90;;;2.85;;
22166;SDS011;11249;52.468;13.776;2023-06-01T02:43:20;7.03;;;3.53;;
22166;SDS011;11249;52.468;13.776;2023-06-01T02:45:46;4.95;;;3.05;;
22166;SDS011;11249;52.468;13.776;2023-06-01T02:48:13;5.10;;;3.33;;
22166;SDS011;11249;52.468;13.776;2023-06-01T02:50:40;4.07;;;2.97;;
22166;SDS011;11249;52.468;13.776;2023-06-01T02:53:08;4.57;;;3.38;;
22166;SDS011;11249;52.468;13.776;2023-06-01T02:55:34;9.55;;;3.60;;
22166;SDS011;11249;52.468;13.776;2023-06-01T02:58:01;4.60;;;2.97;;
22166;SDS011;11249;52.468;13.776;2023-06-01T03:00:28;5.75;;;2.80;;
22166;SDS011;11249;52.468;13.776;2023-06-01T03:02:55;7.10;;;2.97;;
22166;SDS011;11249;52.468;13.776;2023-06-01T03:05:22;5.30;;;3.08;;
22166;SDS011;11249;52.468;13.776;2023-06-01T03:07:48;4.38;;;3.55;;
22166;SDS011;11249;52.468;13.776;2023-06-01T03:10:15;6.22;;;4.05;;
22166;SDS011;11249;52.468;13.776;2023-06-01T03:12:42;4.68;;;2.88;;
22166;SDS011;11249;52.468;13.776;2023-06-01T03:15:09;8.23;;;3.30;;
22166;SDS011;11249;52.468;13.776;2023-06-01T03:17:37;7.25;;;3.85;;
22166;SDS011;11249;52.468;13.776;2023-06-01T03:20:04;6.53;;;3.78;;
22166;SDS011;11249;52.468;13.776;2023-06-01T03:22:41;7.70;;;4.38;;
22166;SDS011;11249;52.468;13.776;2023-06-01T03:25:09;15.95;;;3.78;;
22166;SDS011;11249;52.468;13.776;2023-06-01T03:27:37;5.10;;;3.78;;
22166;SDS011;11249;52.468;13.776;2023-06-01T03:30:05;9.13;;;3.55;;
22166;SDS011;11249;52.468;13.776;2023-06-01T03:32:36;8.10;;;4.13;;
22166;SDS011;11249;52.468;13.776;2023-06-01T03:35:04;9.45;;;3.92;;
22166;SDS011;11249;52.468;13.776;2023-06-01T03:37:34;7.38;;;3.38;;
22166;SDS011;11249;52.468;13.776;2023-06-01T03:40:02;9.25;;;3.63;;
22166;SDS011;11249;52.468;13.776;2023-06-01T03:42:37;8.10;;;3.80;;
22166;SDS011;11249;52.468;13.776;2023-06-01T03:45:11;9.02;;;4.72;;
22166;SDS011;11249;52.468;13.776;2023-06-01T03:47:39;9.85;;;3.65;;
22166;SDS011;11249;52.468;13.776;2023-06-01T03:50:07;7.07;;;3.75;;
22166;SDS011;11249;52.468;13.776;2023-06-01T03:52:35;7.32;;;3.42;;
22166;SDS011;11249;52.468;13.776;2023-06-01T03:55:03;5.88;;;3.63;;
22166;SDS011;11249;52.468;13.776;2023-06-01T03:57:34;10.82;;;4.60;;
22166;SDS011;11249;52.468;13.776;2023-06-01T04:00:05;9.95;;;4.60;;
22166;SDS011;11249;52.468;13.776;2023-06-01T04:02:46;7.78;;;4.72;;
22166;SDS011;11249;52.468;13.776;2023-06-01T04:05:19;12.43;;;5.00;;
22166;SDS011;11249;52.468;13.776;2023-06-01T04:07:50;10.55;;;4.88;;
22166;SDS011;11249;52.468;13.776;2023-06-01T04:10:18;13.85;;;5.05;;
22166;SDS011;11249;52.468;13.776;2023-06-01T04:12:47;6.68;;;5.97;;
22166;SDS011;11249;52.468;13.776;2023-06-01T04:15:18;8.90;;;5.22;;
22166;SDS011;11249;52.468;13.776;2023-06-01T04:17:46;14.55;;;5.28;;
22166;SDS011;11249;52.468;13.776;2023-06-01T04:20:17;12.40;;;6.45;;
22166;SDS011;11249;52.468;13.776;2023-06-01T04:25:12;9.45;;;5.03;;
22166;SDS011;11249;52.468;13.776;2023-06-01T04:27:45;11.48;;;6.20;;
22166;SDS011;11249;52.468;13.776;2023-06-01T04:30:13;10.80;;;5.32;;
22166;SDS011;11249;52.468;13.776;2023-06-01T04:32:42;11.88;;;6.22;;
22166;SDS011;11249;52.468;13.776;2023-06-01T04:35:11;9.85;;;6.45;;
22166;SDS011;11249;52.468;13.776;2023-06-01T04:37:38;11.23;;;6.38;;
22166;SDS011;11249;52.468;13.776;2023-06-01T04:40:07;10.50;;;6.38;;
22166;SDS011;11249;52.468;13.776;2023-06-01T04:42:36;18.35;;;7.18;;
22166;SDS011;11249;52.468;13.776;2023-06-01T04:47:42;11.68;;;7.03;;
22166;SDS011;11249;52.468;13.776;2023-06-01T04:50:12;15.10;;;6.90;;
22166;SDS011;11249;52.468;13.776;2023-06-01T04:52:42;18.00;;;7.38;;
22166;SDS011;11249;52.468;13.776;2023-06-01T04:55:10;18.95;;;7.50;;
22166;SDS011;11249;52.468;13.776;2023-06-01T04:57:40;14.02;;;6.88;;
22166;SDS011;11249;52.468;13.776;2023-06-01T05:00:09;16.40;;;7.60;;
22166;SDS011;11249;52.468;13.776;2023-06-01T05:02:39;18.77;;;8.55;;
22166;SDS011;11249;52.468;13.776;2023-06-01T05:05:07;11.35;;;7.47;;
22166;SDS011;11249;52.468;13.776;2023-06-01T05:07:34;14.10;;;7.43;;
22166;SDS011;11249;52.468;13.776;2023-06-01T05:10:05;12.30;;;7.45;;
22166;SDS011;11249;52.468;13.776;2023-06-01T05:12:34;17.27;;;7.68;;
22166;SDS011;11249;52.468;13.776;2023-06-01T05:15:02;14.40;;;8.77;;
22166;SDS011;11249;52.468;13.776;2023-06-01T05:17:33;19.02;;;7.68;;
22166;SDS011;11249;52.468;13.776;2023-06-01T05:20:01;18.80;;;8.00;;
22166;SDS011;11249;52.468;13.776;2023-06-01T05:22:28;16.23;;;8.02;;
22166;SDS011;11249;52.468;13.776;2023-06-01T05:24:54;16.83;;;8.60;;
22166;SDS011;11249;52.468;13.776;2023-06-01T05:27:22;13.45;;;7.57;;
22166;SDS011;11249;52.468;13.776;2023-06-01T05:29:49;13.57;;;8.98;;
22166;SDS011;11249;52.468;13.776;2023-06-01T05:32:16;16.73;;;8.52;;
22166;SDS011;11249;52.468;13.776;2023-06-01T05:34:42;18.35;;;9.65;;
22166;SDS011;11249;52.468;13.776;2023-06-01T05:37:09;17.92;;;9.00;;
22166;SDS011;11249;52.468;13.776;2023-06-01T05:39:36;18.98;;;8.82;;
22166;SDS011;11249;52.468;13.776;2023-06-01T05:42:03;17.58;;;9.32;;
22166;SDS011;11249;52.468;13.776;2023-06-01T05:44:32;22.92;;;10.55;;
22166;SDS011;11249;52.468;13.776;2023-06-01T05:46:58;20.95;;;10.00;;
22166;SDS011;11249;52.468;13.776;2023-06-01T05:49:25;15.95;;;9.02;;
22166;SDS011;11249;52.468;13.776;2023-06-01T05:51:56;21.92;;;11.27;;
22166;SDS011;11249;52.468;13.776;2023-06-01T05:54:24;17.13;;;10.85;;
22166;SDS011;11249;52.468;13.776;2023-06-01T05:56:51;19.65;;;11.13;;
22166;SDS011;11249;52.468;13.776;2023-06-01T05:59:17;20.80;;;10.07;;
22166;SDS011;11249;52.468;13.776;2023-06-01T06:01:44;20.38;;;10.75;;
22166;SDS011;11249;52.468;13.776;2023-06-01T06:04:12;19.05;;;10.10;;
22166;SDS011;11249;52.468;13.776;2023-06-01T06:06:39;21.98;;;10.00;;
22166;SDS011;11249;52.468;13.776;2023-06-01T06:09:06;22.02;;;10.88;;
22166;SDS011;11249;52.468;13.776;2023-06-01T06:11:33;20.45;;;10.02;;
22166;SDS011;11249;52.468;13.776;2023-06-01T06:14:00;21.98;;;11.10;;
22166;SDS011;11249;52.468;13.776;2023-06-01T06:16:27;15.88;;;10.73;;
22166;SDS011;11249;52.468;13.776;2023-06-01T06:18:53;23.25;;;9.93;;
22166;SDS011;11249;52.468;13.776;2023-06-01T06:21:20;20.25;;;9.63;;
22166;SDS011;11249;52.468;13.776;2023-06-01T06:23:48;18.02;;;10.77;;
22166;SDS011;11249;52.468;13.776;2023-06-01T06:26:15;22.58;;;10.93;;
22166;SDS011;11249;52.468;13.776;2023-06-01T06:28:42;16.10;;;9.63;;
22166;SDS011;11249;52.468;13.776;2023-06-01T06:31:08;25.65;;;11.43;;
22166;SDS011;11249;52.468;13.776;2023-06-01T06:33:35;18.65;;;10.00;;
22166;SDS011;11249;52.468;13.776;2023-06-01T06:36:02;17.73;;;10.32;;
22166;SDS011;11249;52.468;13.776;2023-06-01T06:38:29;17.77;;;10.70;;
22166;SDS011;11249;52.468;13.776;2023-06-01T06:40:55;15.13;;;9.43;;
22166;SDS011;11249;52.468;13.776;2023-06-01T06:43:23;17.67;;;10.80;;
22166;SDS011;11249;52.468;13.776;2023-06-01T06:45:50;21.20;;;11.35;;
22166;SDS011;11249;52.468;13.776;2023-06-01T06:48:17;22.98;;;12.23;;
22166;SDS011;11249;52.468;13.776;2023-06-01T06:50:44;18.63;;;10.90;;
22166;SDS011;11249;52.468;13.776;2023-06-01T06:53:11;18.52;;;10.23;;
22166;SDS011;11249;52.468;13.776;2023-06-01T06:55:38;18.60;;;10.48;;
22166;SDS011;11249;52.468;13.776;2023-06-01T06:58:05;17.67;;;10.52;;
22166;SDS011;11249;52.468;13.776;2023-06-01T07:00:32;17.20;;;10.68;;
22166;SDS011;11249;52.468;13.776;2023-06-01T07:02:59;19.58;;;9.32;;
22166;SDS011;11249;52.468;13.776;2023-06-01T07:05:26;13.88;;;9.23;;
22166;SDS011;11249;52.468;13.776;2023-06-01T07:07:53;15.80;;;8.85;;
22166;SDS011;11249;52.468;13.776;2023-06-01T07:10:23;18.10;;;9.38;;
22166;SDS011;11249;52.468;13.776;2023-06-01T07:12:51;20.67;;;9.07;;
22166;SDS011;11249;52.468;13.776;2023-06-01T07:15:18;11.43;;;8.32;;
22166;SDS011;11249;52.468;13.776;2023-06-01T07:17:45;15.65;;;8.90;;
22166;SDS011;11249;52.468;13.776;2023-06-01T07:20:12;15.15;;;8.38;;
22166;SDS011;11249;52.468;13.776;2023-06-01T07:22:38;17.92;;;8.10;;
22166;SDS011;11249;52.468;13.776;2023-06-01T07:25:06;18.13;;;8.40;;
22166;SDS011;11249;52.468;13.776;2023-06-01T07:27:35;15.00;;;8.15;;
22166;SDS011;11249;52.468;13.776;2023-06-01T07:30:03;12.02;;;7.30;;
22166;SDS011;11249;52.468;13.776;2023-06-01T07:32:30;15.27;;;7.85;;
22166;SDS011;11249;52.468;13.776;2023-06-01T07:34:57;19.77;;;8.15;;
22166;SDS011;11249;52.468;13.776;2023-06-01T07:37:25;12.15;;;7.38;;
22166;SDS011;11249;52.468;13.776;2023-06-01T07:39:56;17.30;;;8.77;;
22166;SDS011;11249;52.468;13.776;2023-06-01T07:42:23;16.67;;;8.70;;
22166;SDS011;11249;52.468;13.776;2023-06-01T07:44:50;20.85;;;8.45;;
22166;SDS011;11249;52.468;13.776;2023-06-01T07:47:17;19.83;;;8.68;;
22166;SDS011;11249;52.468;13.776;2023-06-01T07:49:43;18.73;;;7.88;;
22166;SDS011;11249;52.468;13.776;2023-06-01T07:52:10;12.23;;;7.82;;
22166;SDS011;11249;52.468;13.776;2023-06-01T07:54:37;15.73;;;7.78;;
22166;SDS011;11249;52.468;13.776;2023-06-01T07:57:04;14.88;;;7.35;;
22166;SDS011;11249;52.468;13.776;2023-06-01T07:59:31;14.55;;;7.70;;
22166;SDS011;11249;52.468;13.776;2023-06-01T08:01:58;12.98;;;6.60;;
22166;SDS011;11249;52.468;13.776;2023-06-01T08:04:27;12.43;;;7.45;;
22166;SDS011;11249;52.468;13.776;2023-06-01T08:07:00;12.38;;;7.03;;
22166;SDS011;11249;52.468;13.776;2023-06-01T08:09:29;12.10;;;7.03;;
22166;SDS011;11249;52.468;13.776;2023-06-01T08:11:57;15.82;;;6.38;;
22166;SDS011;11249;52.468;13.776;2023-06-01T08:14:24;14.65;;;6.53;;
22166;SDS011;11249;52.468;13.776;2023-06-01T08:16:51;15.00;;;6.47;;
22166;SDS011;11249;52.468;13.776;2023-06-01T08:19:18;12.10;;;6.85;;
22166;SDS011;11249;52.468;13.776;2023-06-01T08:21:45;10.63;;;5.97;;
22166;SDS011;11249;52.468;13.776;2023-06-01T08:24:12;12.38;;;6.68;;
22166;SDS011;11249;52.468;13.776;2023-06-01T08:26:39;12.65;;;6.80;;
22166;SDS011;11249;52.468;13.776;2023-06-01T08:29:07;14.88;;;6.78;;
22166;SDS011;11249;52.468;13.776;2023-06-01T08:31:34;15.25;;;6.63;;
22166;SDS011;11249;52.468;13.776;2023-06-01T08:34:03;12.70;;;6.55;;
22166;SDS011;11249;52.468;13.776;2023-06-01T08:36:30;16.92;;;6.82;;
22166;SDS011;11249;52.468;13.776;2023-06-01T08:38:57;12.57;;;6.35;;
22166;SDS011;11249;52.468;13.776;2023-06-01T08:44:06;15.73;;;7.32;;
22166;SDS011;11249;52.468;13.776;2023-06-01T08:46:36;20.55;;;7.50;;
22166;SDS011;11249;52.468;13.776;2023-06-01T08:51:33;13.98;;;7.13;;
22166;SDS011;11249;52.468;13.776;2023-06-01T08:54:04;14.55;;;7.20;;
22166;SDS011;11249;52.468;13.776;2023-06-01T08:56:35;15.38;;;7.75;;
22166;SDS011;11249;52.468;13.776;2023-06-01T08:59:03;13.43;;;6.55;;
22166;SDS011;11249;52.468;13.776;2023-06-01T09:01:30;13.25;;;7.60;;
22166;SDS011;11249;52.468;13.776;2023-06-01T09:03:57;11.50;;;6.70;;
22166;SDS011;11249;52.468;13.776;2023-06-01T09:06:24;12.75;;;8.10;;
22166;SDS011;11249;52.468;13.776;2023-06-01T09:08:51;14.95;;;7.60;;
22166;SDS011;11249;52.468;13.776;2023-06-01T09:11:17;11.70;;;7.03;;
22166;SDS011;11249;52.468;13.776;2023-06-01T09:13:45;12.25;;;6.78;;
22166;SDS011;11249;52.468;13.776;2023-06-01T09:16:12;15.02;;;7.03;;
22166;SDS011;11249;52.468;13.776;2023-06-01T09:18:54;9.70;;;6.10;;
22166;SDS011;11249;52.468;13.776;2023-06-01T09:21:21;12.70;;;6.00;;
22166;SDS011;11249;52.468;13.776;2023-06-01T09:23:48;10.10;;;5.78;;
22166;SDS011;11249;52.468;13.776;2023-06-01T09:26:15;11.85;;;5.97;;
22166;SDS011;11249;52.468;13.776;2023-06-01T09:28:59;13.38;;;6.45;;
22166;SDS011;11249;52.468;13.776;2023-06-01T09:31:35;14.90;;;6.43;;
22166;SDS011;11249;52.468;13.776;2023-06-01T09:34:08;14.48;;;6.53;;
22166;SDS011;11249;52.468;13.776;2023-06-01T09:36:37;12.88;;;6.78;;
22166;SDS011;11249;52.468;13.776;2023-06-01T09:39:05;13.23;;;6.75;;
22166;SDS011;11249;52.468;13.776;2023-06-01T09:44:23;10.20;;;6.30;;
22166;SDS011;11249;52.468;13.776;2023-06-01T09:46:55;13.07;;;6.78;;
22166;SDS011;11249;52.468;13.776;2023-06-01T09:49:30;14.55;;;6.85;;
22166;SDS011;11249;52.468;13.776;2023-06-01T09:57:10;14.30;;;6.15;;
22166;SDS011;11249;52.468;13.776;2023-06-01T09:59:39;11.35;;;6.10;;
22166;SDS011;11249;52.468;13.776;2023-06-01T10:02:10;11.83;;;7.07;;
22166;SDS011;11249;52.468;13.776;2023-06-01T10:04:50;13.02;;;6.18;;
22166;SDS011;11249;52.468;13.776;2023-06-01T10:07:28;10.63;;;6.70;;
22166;SDS011;11249;52.468;13.776;2023-06-01T10:09:58;9.82;;;6.20;;
22166;SDS011;11249;52.468;13.776;2023-06-01T10:12:29;10.10;;;6.25;;
22166;SDS011;11249;52.468;13.776;2023-06-01T10:15:00;11.88;;;6.10;;
22166;SDS011;11249;52.468;13.776;2023-06-01T10:17:38;13.00;;;6.68;;
22166;SDS011;11249;52.468;13.776;2023-06-01T10:20:08;10.20;;;6.20;;
22166;SDS011;11249;52.468;13.776;2023-06-01T10:22:41;9.43;;;5.97;;
22166;SDS011;11249;52.468;13.776;2023-06-01T10:25:10;12.27;;;5.28;;
22166;SDS011;11249;52.468;13.776;2023-06-01T10:27:40;15.77;;;6.40;;
22166;SDS011;11249;52.468;13.776;2023-06-01T10:30:17;11.13;;;5.32;;
22166;SDS011;11249;52.468;13.776;2023-06-01T10:32:44;11.13;;;5.32;;
22166;SDS011;11249;52.468;13.776;2023-06-01T10:40:42;13.15;;;5.78;;
22166;SDS011;11249;52.468;13.776;2023-06-01T10:49:01;9.57;;;5.45;;
22166;SDS011;11249;52.468;13.776;2023-06-01T10:51:29;10.70;;;5.07;;
22166;SDS011;11249;52.468;13.776;2023-06-01T10:57:17;7.40;;;5.15;;
22166;SDS011;11249;52.468;13.776;2023-06-01T11:05:33;10.68;;;5.55;;
22166;SDS011;11249;52.468;13.776;2023-06-01T11:13:30;9.73;;;4.88;;
22166;SDS011;11249;52.468;13.776;2023-06-01T11:21:12;12.90;;;5.25;;
22166;SDS011;11249;52.468;13.776;2023-06-01T11:23:47;8.73;;;5.25;;
22166;SDS011;11249;52.468;13.776;2023-06-01T11:26:15;8.95;;;5.82;;
22166;SDS011;11249;52.468;13.776;2023-06-01T11:28:44;10.48;;;5.32;;
22166;SDS011;11249;52.468;13.776;2023-06-01T11:31:13;11.45;;;6.07;;
22166;SDS011;11249;52.468;13.776;2023-06-01T11:33:51;11.70;;;5.72;;
22166;SDS011;11249;52.468;13.776;2023-06-01T11:36:20;9.93;;;6.50;;
22166;SDS011;11249;52.468;13.776;2023-06-01T11:38:50;12.15;;;5.85;;
22166;SDS011;11249;52.468;13.776;2023-06-01T11:41:20;10.45;;;5.80;;
22166;SDS011;11249;52.468;13.776;2023-06-01T11:43:55;11.80;;;6.35;;
22166;SDS011;11249;52.468;13.776;2023-06-01T11:46:23;11.30;;;6.88;;
22166;SDS011;11249;52.468;13.776;2023-06-01T11:49:01;10.38;;;6.40;;
22166;SDS011;11249;52.468;13.776;2023-06-01T11:51:31;11.85;;;7.50;;
22166;SDS011;11249;52.468;13.776;2023-06-01T11:54:00;10.77;;;7.70;;
22166;SDS011;11249;52.468;13.776;2023-06-01T11:56:31;12.05;;;7.53;;
22166;SDS011;11249;52.468;13.776;2023-06-01T11:59:00;12.15;;;7.28;;
22166;SDS011;11249;52.468;13.776;2023-06-01T12:01:30;16.20;;;8.23;;
22166;SDS011;11249;52.468;13.776;2023-06-01T12:03:57;11.93;;;7.88;;
22166;SDS011;11249;52.468;13.776;2023-06-01T12:06:25;10.30;;;7.15;;
22166;SDS011;11249;52.468;13.776;2023-06-01T12:08:53;12.32;;;8.82;;
22166;SDS011;11249;52.468;13.776;2023-06-01T12:11:22;12.85;;;8.10;;
22166;SDS011;11249;52.468;13.776;2023-06-01T12:13:55;9.88;;;7.10;;
22166;SDS011;11249;52.468;13.776;2023-06-01T12:16:22;9.95;;;6.50;;
22166;SDS011;11249;52.468;13.776;2023-06-01T12:18:49;10.15;;;7.53;;
22166;SDS011;11249;52.468;13.776;2023-06-01T12:21:16;9.50;;;7.35;;
22166;SDS011;11249;52.468;13.776;2023-06-01T12:23:50;11.15;;;7.57;;
22166;SDS011;11249;52.468;13.776;2023-06-01T12:26:19;10.27;;;6.68;;
22166;SDS011;11249;52.468;13.776;2023-06-01T12:31:25;11.85;;;6.95;;
22166;SDS011;11249;52.468;13.776;2023-06-01T12:33:52;7.82;;;6.75;;
22166;SDS011;11249;52.468;13.776;2023-06-01T12:39:01;8.02;;;7.22;;
22166;SDS011;11249;52.468;13.776;2023-06-01T12:41:32;10.15;;;7.50;;
22166;SDS011;11249;52.468;13.776;2023-06-01T12:43:59;13.90;;;7.65;;
22166;SDS011;11249;52.468;13.776;2023-06-01T12:46:26;11.10;;;7.20;;
22166;SDS011;11249;52.468;13.776;2023-06-01T12:49:10;9.05;;;7.13;;
22166;SDS011;11249;52.468;13.776;2023-06-01T12:51:43;12.50;;;7.75;;
22166;SDS011;11249;52.468;13.776;2023-06-01T12:56:40;10.48;;;7.28;;
22166;SDS011;11249;52.468;13.776;2023-06-01T12:59:07;9.65;;;7.03;;
22166;SDS011;11249;52.468;13.776;2023-06-01T13:01:34;12.77;;;7.43;;
22166;SDS011;11249;52.468;13.776;2023-06-01T13:04:01;8.38;;;6.95;;
22166;SDS011;11249;52.468;13.776;2023-06-01T13:06:31;12.07;;;7.20;;
22166;SDS011;11249;52.468;13.776;2023-06-01T13:08:58;10.88;;;6.97;;
22166;SDS011;11249;52.468;13.776;2023-06-01T13:11:25;7.80;;;5.55;;
22166;SDS011;11249;52.468;13.776;2023-06-01T13:13:51;9.18;;;6.95;;
22166;SDS011;11249;52.468;13.776;2023-06-01T13:16:19;11.18;;;6.03;;
22166;SDS011;11249;52.468;13.776;2023-06-01T13:18:47;14.30;;;7.93;;
22166;SDS011;11249;52.468;13.776;2023-06-01T13:21:17;10.27;;;7.03;;
22166;SDS011;11249;52.468;13.776;2023-06-01T13:23:44;10.10;;;6.53;;
22166;SDS011;11249;52.468;13.776;2023-06-01T13:26:12;13.98;;;6.90;;
22166;SDS011;11249;52.468;13.776;2023-06-01T13:28:40;12.23;;;7.15;;
22166;SDS011;11249;52.468;13.776;2023-06-01T13:31:07;9.93;;;6.90;;
22166;SDS011;11249;52.468;13.776;2023-06-01T13:33:35;8.32;;;6.78;;
22166;SDS011;11249;52.468;13.776;2023-06-01T13:36:02;12.95;;;7.57;;
22166;SDS011;11249;52.468;13.776;2023-06-01T13:38:31;8.65;;;7.30;;
22166;SDS011;11249;52.468;13.776;2023-06-01T13:40:58;14.52;;;6.75;;
22166;SDS011;11249;52.468;13.776;2023-06-01T13:43:25;9.43;;;6.40;;
22166;SDS011;11249;52.468;13.776;2023-06-01T13:45:53;11.70;;;6.50;;
22166;SDS011;11249;52.468;13.776;2023-06-01T13:48:20;12.45;;;7.47;;
22166;SDS011;11249;52.468;13.776;2023-06-01T13:50:47;10.82;;;6.57;;
22166;SDS011;11249;52.468;13.776;2023-06-01T13:53:13;10.45;;;7.28;;
22166;SDS011;11249;52.468;13.776;2023-06-01T13:55:41;10.15;;;7.10;;
22166;SDS011;11249;52.468;13.776;2023-06-01T13:58:07;11.32;;;6.78;;
22166;SDS011;11249;52.468;13.776;2023-06-01T14:00:34;10.95;;;6.82;;
22166;SDS011;11249;52.468;13.776;2023-06-01T14:03:02;12.20;;;6.63;;
22166;SDS011;11249;52.468;13.776;2023-06-01T14:05:29;9.68;;;7.20;;
22166;SDS011;11249;52.468;13.776;2023-06-01T14:08:14;13.80;;;7.88;;
22166;SDS011;11249;52.468;13.776;2023-06-01T14:10:41;9.48;;;6.38;;
22166;SDS011;11249;52.468;13.776;2023-06-01T14:13:08;11.88;;;7.82;;
22166;SDS011;11249;52.468;13.776;2023-06-01T14:15:35;13.63;;;7.25;;
22166;SDS011;11249;52.468;13.776;2023-06-01T14:18:02;13.20;;;7.47;;
22166;SDS011;11249;52.468;13.776;2023-06-01T14:20:29;12.35;;;6.43;;
22166;SDS011;11249;52.468;13.776;2023-06-01T14:22:56;9.10;;;6.90;;
22166;SDS011;11249;52.468;13.776;2023-06-01T14:25:23;11.55;;;6.47;;
22166;SDS011;11249;52.468;13.776;2023-06-01T14:27:52;11.20;;;6.40;;
22166;SDS011;11249;52.468;13.776;2023-06-01T14:30:18;7.82;;;6.22;;
22166;SDS011;11249;52.468;13.776;2023-06-01T14:32:45;10.18;;;5.90;;
22166;SDS011;11249;52.468;13.776;2023-06-01T14:35:12;11.05;;;5.43;;
22166;SDS011;11249;52.468;13.776;2023-06-01T14:37:42;11.13;;;5.38;;
22166;SDS011;11249;52.468;13.776;2023-06-01T14:40:15;11.50;;;6.35;;
22166;SDS011;11249;52.468;13.776;2023-06-01T14:42:42;9.32;;;5.20;;
22166;SDS011;11249;52.468;13.776;2023-06-01T14:45:09;8.70;;;5.18;;
22166;SDS011;11249;52.468;13.776;2023-06-01T14:47:37;9.15;;;6.18;;
22166;SDS011;11249;52.468;13.776;2023-06-01T14:50:08;11.95;;;5.70;;
22166;SDS011;11249;52.468;13.776;2023-06-01T14:52:35;10.77;;;6.10;;
22166;SDS011;11249;52.468;13.776;2023-06-01T14:55:02;9.07;;;5.85;;
22166;SDS011;11249;52.468;13.776;2023-06-01T14:57:29;10.65;;;6.20;;
22166;SDS011;11249;52.468;13.776;2023-06-01T14:59:55;9.07;;;5.10;;
22166;SDS011;11249;52.468;13.776;2023-06-01T15:02:30;9.32;;;5.13;;
22166;SDS011;11249;52.468;13.776;2023-06-01T15:04:57;11.60;;;5.68;;
22166;SDS011;11249;52.468;13.776;2023-06-01T15:07:24;10.50;;;5.88;;
22166;SDS011;11249;52.468;13.776;2023-06-01T15:09:51;11.77;;;5.25;;
22166;SDS011;11249;52.468;13.776;2023-06-01T15:12:19;10.77;;;5.35;;
22166;SDS011;11249;52.468;13.776;2023-06-01T15:14:46;8.43;;;5.10;;
22166;SDS011;11249;52.468;13.776;2023-06-01T15:17:14;7.82;;;5.13;;
22166;SDS011;11249;52.468;13.776;2023-06-01T15:19:41;11.10;;;5.88;;
22166;SDS011;11249;52.468;13.776;2023-06-01T15:22:08;11.98;;;5.50;;
22166;SDS011;11249;52.468;13.776;2023-06-01T15:24:36;7.53;;;5.15;;
22166;SDS011;11249;52.468;13.776;2023-06-01T15:27:04;11.60;;;5.78;;
22166;SDS011;11249;52.468;13.776;2023-06-01T15:29:32;8.38;;;5.65;;
22166;SDS011;11249;52.468;13.776;2023-06-01T15:31:59;8.00;;;5.57;;
22166;SDS011;11249;52.468;13.776;2023-06-01T15:34:26;10.90;;;5.22;;